Time;durP1;ratioP1;P1;durP2;ratioP2;P2;SDS_P1;SDS_P2;PMS_P1;PMS_P2;Temp;Humidity;BMP_temperature;BMP_pressure;BME280_temperature;BME280_humidity;BME280_pressure;Samples;Min_cycle;Max_cycle;Signal;HPM_P1;HPM_P2
2022/04/24 00:00:17;;;;;;;2.97;2.73;;;;;;;22.11;39.85;94590.38;6152327;28;104795;-51
2022/04/24 00:03:19;;;;;;;3.50;3.20;;;;;;;22.13;40.04;94591.94;6183485;28;103826;-51
2022/04/24 00:06:21;;;;;;;2.90;2.70;;;;;;;22.13;40.04;94591.94;6169762;28;104051;-51
2022/04/24 00:09:23;;;;;;;3.20;2.90;;;;;;;22.09;39.98;94592.56;6159896;28;104388;-52
2022/04/24 00:12:25;;;;;;;3.03;2.70;;;;;;;22.11;39.59;94592.25;6148834;28;104341;-51
2022/04/24 00:15:26;;;;;;;3.30;2.90;;;;;;;22.08;39.89;94593.66;6159187;28;103027;-52
2022/04/24 00:18:28;;;;;;;2.93;2.73;;;;;;;22.09;39.67;94594.44;6166955;28;104213;-53
2022/04/24 00:21:30;;;;;;;3.47;3.17;;;;;;;22.06;39.49;94601.19;6159383;28;103498;-51
2022/04/24 00:24:32;;;;;;;2.73;2.53;;;;;;;22.04;39.71;94595.41;6151604;28;103233;-51
2022/04/24 00:27:34;;;;;;;2.87;2.67;;;;;;;22.07;39.87;94594.75;6163607;28;103450;-51
2022/04/24 00:30:36;;;;;;;3.47;3.17;;;;;;;22.07;40.16;94602.75;6179469;28;103339;-51
2022/04/24 00:33:38;;;;;;;2.70;2.50;;;;;;;22.07;39.64;94604.63;6172678;28;103195;-52
2022/04/24 00:36:39;;;;;;;3.67;2.93;;;;;;;22.06;39.86;94605.75;6156994;28;102936;-51
2022/04/24 00:39:41;;;;;;;2.70;2.50;;;;;;;22.05;39.51;94606.84;6161742;28;104322;-53
2022/04/24 00:42:43;;;;;;;2.70;2.50;;;;;;;22.03;39.95;94601.84;6162280;28;103506;-51
2022/04/24 00:45:45;;;;;;;3.03;2.83;;;;;;;21.98;39.83;94587.88;6174326;28;103376;-50
2022/04/24 00:48:47;;;;;;;2.80;2.60;;;;;;;22.04;39.47;94600.72;6186917;28;103207;-51
2022/04/24 00:51:49;;;;;;;2.70;2.50;;;;;;;22.04;39.53;94599.94;6162941;28;103094;-51
2022/04/24 00:54:51;;;;;;;3.03;2.57;;;;;;;22.02;39.97;94594.94;6171660;28;104010;-52
2022/04/24 00:57:53;;;;;;;2.80;2.60;;;;;;;22.02;39.53;94602.94;6152250;28;103069;-52
2022/04/24 01:00:56;;;;;;;2.63;2.43;;;;;;;22.04;39.35;94605.28;6171913;28;104225;-51
2022/04/24 01:04:02;;;;;;;2.80;2.50;;;;;;;22.01;39.24;94606.69;6186320;28;103082;-52
2022/04/24 01:07:04;;;;;;;3.80;2.80;;;;;;;22.01;39.63;94608.56;6168597;28;102871;-52
2022/04/24 01:10:06;;;;;;;3.13;2.83;;;;;;;22.01;39.34;94606.69;6152250;28;103824;-51
2022/04/24 01:13:08;;;;;;;2.10;2.00;;;;;;;22.00;39.47;94609.66;6162159;28;103005;-51
2022/04/24 01:16:09;;;;;;;3.17;2.77;;;;;;;22.01;39.28;94612.03;6162980;28;104313;-51
2022/04/24 01:19:12;;;;;;;3.13;2.83;;;;;;;22.01;39.66;94617.34;6157314;28;104333;-51
2022/04/24 01:22:16;;;;;;;2.67;2.47;;;;;;;21.97;39.22;94621.72;6156975;28;103865;-51
2022/04/24 01:25:18;;;;;;;2.70;2.50;;;;;;;21.97;39.37;94615.63;6162381;28;103570;-51
2022/04/24 01:28:20;;;;;;;2.20;2.10;;;;;;;21.95;39.37;94618.59;6162661;28;104294;-53
2022/04/24 01:31:22;;;;;;;2.27;2.10;;;;;;;21.96;39.70;94630.03;6158653;28;104253;-51
2022/04/24 01:34:24;;;;;;;3.27;3.00;;;;;;;21.94;39.42;94632.22;6159925;28;104042;-51
2022/04/24 01:37:25;;;;;;;2.70;2.50;;;;;;;21.95;39.18;94628.47;6160763;28;103175;-52
2022/04/24 01:40:27;;;;;;;2.53;2.33;;;;;;;21.95;39.62;94629.25;6161804;28;103252;-52
2022/04/24 01:43:29;;;;;;;2.67;2.47;;;;;;;21.95;39.64;94634.56;6152047;28;103018;-51
2022/04/24 01:46:30;;;;;;;2.33;2.13;;;;;;;21.96;39.57;94630.03;6180449;28;104152;-52
2022/04/24 01:49:32;;;;;;;2.43;2.23;;;;;;;21.95;39.70;94634.56;6186599;28;104133;-51
2022/04/24 01:52:34;;;;;;;3.10;2.90;;;;;;;21.96;39.40;94648.69;6168465;28;103232;-52
2022/04/24 01:55:36;;;;;;;2.33;2.23;;;;;;;21.91;39.69;94644.31;6151491;28;104536;-51
2022/04/24 01:58:39;;;;;;;2.67;2.47;;;;;;;21.89;39.24;94635.84;6164620;28;103188;-52
2022/04/24 02:01:41;;;;;;;1.90;1.80;;;;;;;21.91;39.62;94638.97;6170558;28;104209;-51
2022/04/24 02:04:42;;;;;;;2.37;2.17;;;;;;;21.91;39.04;94633.66;6155171;28;104272;-52
2022/04/24 02:07:44;;;;;;;2.30;2.10;;;;;;;21.92;39.02;94643.22;6160557;28;104209;-51
2022/04/24 02:10:47;;;;;;;3.33;2.77;;;;;;;21.90;38.96;94636.63;6171581;28;103231;-51
2022/04/24 02:13:48;;;;;;;2.57;2.37;;;;;;;21.88;38.99;94636.16;6151913;28;104207;-51
2022/04/24 02:16:50;;;;;;;2.67;2.23;;;;;;;21.85;39.24;94636.78;6153224;28;104166;-53
2022/04/24 02:19:52;;;;;;;2.53;2.33;;;;;;;21.85;39.34;94640.25;6167241;28;104729;-51
2022/04/24 02:22:55;;;;;;;2.50;2.30;;;;;;;21.89;39.27;94646.50;6185997;28;103362;-52
2022/04/24 02:25:57;;;;;;;2.27;2.07;;;;;;;21.88;39.14;94644.16;6186004;28;103212;-52
2022/04/24 02:28:59;;;;;;;2.63;2.43;;;;;;;21.89;39.37;94651.03;6154365;28;103688;-51
2022/04/24 02:32:01;;;;;;;2.10;1.97;;;;;;;21.87;38.94;94643.38;6175444;28;103192;-51
2022/04/24 02:35:03;;;;;;;2.10;2.00;;;;;;;21.85;38.82;94642.91;6160266;28;103106;-52
2022/04/24 02:38:05;;;;;;;2.60;2.40;;;;;;;21.81;39.11;94629.38;6159718;28;104440;-53
2022/04/24 02:41:07;;;;;;;2.10;1.90;;;;;;;21.86;38.77;94635.69;6150908;28;103245;-51
2022/04/24 02:44:08;;;;;;;2.50;2.30;;;;;;;21.86;39.42;94636.47;6175255;28;104320;-52
2022/04/24 02:47:10;;;;;;;2.00;1.90;;;;;;;21.85;38.89;94639.47;6160578;28;103981;-52
2022/04/24 02:50:13;;;;;;;2.07;1.97;;;;;;;21.85;39.10;94634.91;6156002;28;103795;-51
2022/04/24 02:53:15;;;;;;;2.03;1.93;;;;;;;21.84;39.13;94632.53;6156265;28;105410;-51
2022/04/24 02:56:17;;;;;;;2.17;2.00;;;;;;;21.77;39.42;94627.66;6166805;28;104217;-51
2022/04/24 02:59:18;;;;;;;2.47;2.27;;;;;;;21.74;38.85;94629.06;6177189;28;103064;-52
2022/04/24 03:02:20;;;;;;;2.40;2.20;;;;;;;21.84;38.82;94646.63;6149689;28;103233;-51
2022/04/24 03:05:23;;;;;;;2.30;2.20;;;;;;;21.82;38.66;94654.16;6159727;28;103197;-51
2022/04/24 03:08:26;;;;;;;2.07;1.90;;;;;;;21.79;38.97;94652.88;6173621;28;104053;-52
2022/04/24 03:11:27;;;;;;;2.60;2.40;;;;;;;21.83;38.76;94658.38;6162382;28;104219;-52
2022/04/24 03:14:29;;;;;;;1.90;1.80;;;;;;;21.81;38.73;94661.34;6151092;28;103811;-51
2022/04/24 03:17:32;;;;;;;2.00;1.90;;;;;;;21.81;39.20;94665.88;6160618;28;104106;-56
2022/04/24 03:20:34;;;;;;;1.90;1.80;;;;;;;21.84;38.36;94667.94;6159918;28;104175;-52
2022/04/24 03:23:36;;;;;;;3.77;2.13;;;;;;;21.84;38.55;94667.16;6183722;28;103668;-52
2022/04/24 03:26:38;;;;;;;1.87;1.77;;;;;;;21.83;38.37;94676.25;6169861;28;103155;-51
2022/04/24 03:29:40;;;;;;;2.10;1.90;;;;;;;21.80;38.38;94670.44;6171508;28;103380;-52
2022/04/24 03:32:41;;;;;;;2.20;2.00;;;;;;;21.80;38.22;94686.41;6182332;28;104115;-53
2022/04/24 03:35:43;;;;;;;2.83;2.10;;;;;;;21.80;38.09;94688.28;6179164;28;105441;-51
2022/04/24 03:38:45;;;;;;;2.37;2.17;;;;;;;21.80;38.04;94697.06;6179137;28;103190;-51
2022/04/24 03:41:46;;;;;;;2.07;1.90;;;;;;;21.78;38.63;94698.47;6170575;28;104392;-52
2022/04/24 03:44:48;;;;;;;1.83;1.73;;;;;;;21.78;38.63;94690.47;6159573;28;104314;-52
2022/04/24 03:47:51;;;;;;;2.00;1.90;;;;;;;21.78;38.45;94685.16;6153510;28;103259;-52
2022/04/24 03:50:53;;;;;;;4.40;2.60;;;;;;;21.78;38.53;94691.28;6184605;28;103216;-52
2022/04/24 03:53:55;;;;;;;2.23;2.10;;;;;;;21.77;38.58;94702.22;6171382;28;103663;-51
2022/04/24 03:56:57;;;;;;;2.30;2.10;;;;;;;21.76;38.26;94700.66;6163852;28;104067;-51
2022/04/24 03:59:59;;;;;;;2.30;2.10;;;;;;;21.76;38.45;94701.44;6161837;28;103271;-51
2022/04/24 04:03:00;;;;;;;2.20;2.00;;;;;;;21.75;38.52;94693.78;6168577;28;103109;-50
2022/04/24 04:06:02;;;;;;;2.30;2.10;;;;;;;21.76;38.13;94695.34;6163326;28;103024;-51
2022/04/24 04:09:04;;;;;;;2.83;2.10;;;;;;;21.76;38.52;94695.34;6167439;28;104335;-51
2022/04/24 04:12:06;;;;;;;2.67;2.47;;;;;;;21.74;38.10;94694.88;6160680;28;104688;-51
2022/04/24 04:15:09;;;;;;;2.13;1.93;;;;;;;21.74;38.17;94697.53;6163801;28;104006;-52
2022/04/24 04:18:10;;;;;;;2.40;2.20;;;;;;;21.75;38.33;94689.22;6165851;28;103543;-52
2022/04/24 04:21:12;;;;;;;1.70;1.60;;;;;;;21.74;38.04;94689.53;6157000;28;104273;-53
2022/04/24 04:24:14;;;;;;;2.63;2.30;;;;;;;21.75;37.81;94683.13;6158878;28;103318;-51
2022/04/24 04:27:16;;;;;;;2.40;2.20;;;;;;;21.73;37.86;94699.41;6161617;28;104262;-51
2022/04/24 04:30:18;;;;;;;2.60;2.40;;;;;;;21.72;37.96;94695.19;6181256;28;103170;-51
2022/04/24 04:33:21;;;;;;;2.77;2.57;;;;;;;21.72;38.31;94699.72;6160348;28;103166;-51
2022/04/24 04:36:23;;;;;;;2.50;2.30;;;;;;;21.73;38.12;94698.63;6161259;28;103016;-52
2022/04/24 04:39:25;;;;;;;2.97;2.70;;;;;;;21.74;37.94;94697.53;6161398;28;104228;-52
2022/04/24 04:42:26;;;;;;;2.80;2.60;;;;;;;21.72;37.93;94695.19;6161695;28;102928;-51
2022/04/24 04:45:28;;;;;;;3.00;2.80;;;;;;;21.71;37.96;94701.59;6162022;28;103914;-52
2022/04/24 04:48:30;;;;;;;2.73;2.53;;;;;;;21.71;38.02;94703.50;6163452;28;104110;-52
2022/04/24 04:51:32;;;;;;;3.20;2.90;;;;;;;21.73;37.94;94709.28;6162019;28;103085;-51
2022/04/24 04:54:34;;;;;;;2.63;2.40;;;;;;;21.73;37.84;94720.72;6160741;28;104256;-52
2022/04/24 04:57:36;;;;;;;3.60;2.67;;;;;;;21.72;37.57;94716.50;6158719;28;104111;-51
2022/04/24 05:00:38;;;;;;;3.00;2.70;;;;;;;21.73;37.91;94722.59;6160530;28;103701;-51
2022/04/24 05:03:39;;;;;;;2.53;2.33;;;;;;;21.72;37.94;94726.38;6161961;28;104044;-51
2022/04/24 05:06:41;;;;;;;1.93;1.80;;;;;;;21.73;38.01;94723.38;6151799;28;103118;-52
2022/04/24 05:09:43;;;;;;;4.23;2.80;;;;;;;21.66;38.04;94730.25;6158567;28;103971;-51
2022/04/24 05:12:45;;;;;;;3.50;2.70;;;;;;;21.48;37.81;94735.53;6161192;28;103286;-51
2022/04/24 05:15:47;;;;;;;4.37;3.40;;;;;;;21.41;37.74;94735.22;6160651;28;103147;-51
2022/04/24 05:18:48;;;;;;;3.73;3.00;;;;;;;21.34;37.79;94734.88;6150708;28;103140;-51
2022/04/24 05:21:50;;;;;;;3.27;2.97;;;;;;;21.31;37.52;94735.47;6175304;28;103267;-53
2022/04/24 05:24:52;;;;;;;4.90;3.03;;;;;;;21.23;37.42;94730.91;6179357;28;104185;-52
2022/04/24 05:27:53;;;;;;;3.93;3.20;;;;;;;21.19;37.48;94744.06;6177375;28;103250;-51
2022/04/24 05:30:55;;;;;;;4.57;3.50;;;;;;;21.19;37.34;94735.28;6152588;28;104712;-51
2022/04/24 05:33:57;;;;;;;3.93;3.63;;;;;;;21.16;37.57;94736.66;6184207;28;104082;-50
2022/04/24 05:36:58;;;;;;;3.80;3.50;;;;;;;21.13;37.36;94731.19;6160207;28;104405;-54
2022/04/24 05:40:01;;;;;;;4.07;3.77;;;;;;;21.15;37.28;94729.00;6160233;28;103084;-54
2022/04/24 05:43:02;;;;;;;3.87;3.47;;;;;;;21.30;37.23;94727.81;6151666;28;103087;-55
2022/04/24 05:46:04;;;;;;;3.67;3.30;;;;;;;21.49;36.84;94729.09;6160943;28;104189;-54
2022/04/24 05:49:06;;;;;;;7.40;3.57;;;;;;;21.59;37.44;94724.59;6160965;28;103053;-54
2022/04/24 05:52:12;;;;;;;4.90;4.17;;;;;;;21.54;37.75;94724.75;6163989;28;103070;-54
2022/04/24 05:55:14;;;;;;;76.70;11.00;;;;;;;21.34;38.46;94726.09;6165335;28;221886;-54
2022/04/24 05:58:16;;;;;;;20.00;5.20;;;;;;;21.58;37.83;94737.13;6180545;28;103042;-58
2022/04/24 06:01:17;;;;;;;14.80;5.10;;;;;;;21.71;37.82;94727.47;6168040;28;103236;-55
2022/04/24 06:04:19;;;;;;;7.33;4.50;;;;;;;21.80;37.98;94728.25;6161190;28;103126;-53
2022/04/24 06:07:23;;;;;;;6.37;4.43;;;;;;;21.91;37.53;94724.22;6173594;28;104411;-54
2022/04/24 06:10:25;;;;;;;5.23;3.43;;;;;;;21.98;37.74;94724.53;6198177;28;104438;-54
2022/04/24 06:13:27;;;;;;;5.37;3.97;;;;;;;22.04;37.68;94717.19;6184846;28;103369;-54
2022/04/24 06:16:29;;;;;;;5.83;3.37;;;;;;;22.08;37.40;94716.25;6173299;28;104115;-53
2022/04/24 06:19:31;;;;;;;3.37;3.00;;;;;;;22.15;37.39;94706.97;6160742;28;104011;-54
2022/04/24 06:22:43;;;;;;;4.77;3.73;;;;;;;22.21;37.03;94708.41;6173942;28;103380;-55
2022/04/24 06:25:45;;;;;;;6.33;3.60;;;;;;;22.20;37.29;94709.50;6155124;28;104198;-55
2022/04/24 06:28:47;;;;;;;4.70;3.10;;;;;;;22.29;36.70;94704.94;6138137;28;104187;-54
2022/04/24 06:31:49;;;;;;;4.67;3.40;;;;;;;22.32;37.06;94706.97;6163334;28;103315;-54
2022/04/24 06:34:50;;;;;;;4.70;3.27;;;;;;;22.40;36.98;94706.19;6153922;28;103107;-54
2022/04/24 06:37:54;;;;;;;6.10;3.30;;;;;;;22.51;37.79;94703.97;6151863;28;104201;-54
2022/04/24 06:40:55;;;;;;;6.17;3.60;;;;;;;22.60;37.17;94704.78;6159439;28;104472;-55
2022/04/24 06:43:57;;;;;;;5.10;3.40;;;;;;;22.60;37.55;94716.22;6156363;28;104457;-53
2022/04/24 06:46:59;;;;;;;6.63;3.67;;;;;;;22.67;38.16;94711.19;6158717;28;104080;-53
2022/04/24 06:50:00;;;;;;;4.47;3.20;;;;;;;22.28;39.00;94703.38;6148865;28;103050;-55
2022/04/24 06:53:04;;;;;;;4.60;3.50;;;;;;;22.04;37.62;94704.66;6159320;28;102738;-54
2022/04/24 06:56:06;;;;;;;3.87;3.27;;;;;;;21.99;37.13;94702.13;6158879;28;103050;-55
2022/04/24 06:59:08;;;;;;;2.77;2.43;;;;;;;22.32;37.44;94701.63;6166781;28;103376;-55
2022/04/24 07:02:10;;;;;;;5.00;3.67;;;;;;;22.55;37.82;94689.72;6147704;28;103510;-55
2022/04/24 07:05:12;;;;;;;5.70;3.20;;;;;;;22.61;38.74;94693.78;6160779;28;103123;-54
2022/04/24 07:08:14;;;;;;;4.63;3.40;;;;;;;22.59;38.39;94685.31;6159119;28;103198;-54
2022/04/24 07:11:17;;;;;;;6.73;3.33;;;;;;;22.70;38.31;94675.91;6163056;28;103398;-54
2022/04/24 07:14:18;;;;;;;4.50;2.87;;;;;;;22.77;37.84;94682.63;6151647;28;104926;-54
2022/04/24 07:17:21;;;;;;;4.50;3.33;;;;;;;22.84;37.61;94677.56;6162631;28;103564;-54
2022/04/24 07:20:24;;;;;;;4.60;3.43;;;;;;;22.94;37.90;94680.69;6164041;28;103331;-54
2022/04/24 07:23:25;;;;;;;4.73;3.30;;;;;;;23.05;38.06;94680.34;6149464;28;104110;-54
2022/04/24 07:26:27;;;;;;;3.63;3.23;;;;;;;23.09;38.40;94676.69;6162758;28;104363;-54
2022/04/24 07:29:29;;;;;;;4.90;3.37;;;;;;;23.13;38.42;94676.84;6157604;28;103181;-54
2022/04/24 07:32:38;;;;;;;5.90;4.03;;;;;;;23.14;38.14;94673.84;6165877;28;104256;-54
2022/04/24 07:35:42;;;;;;;4.73;3.70;;;;;;;23.16;38.31;94668.97;6150630;28;103731;-53
2022/04/24 07:38:44;;;;;;;4.97;4.00;;;;;;;23.18;38.35;94663.28;6162921;28;103282;-54
2022/04/24 07:41:45;;;;;;;4.63;3.83;;;;;;;23.22;38.47;94662.34;6160659;28;104085;-55
2022/04/24 07:44:51;;;;;;;5.47;3.70;;;;;;;23.26;38.14;94667.81;6163149;28;103213;-54
2022/04/24 07:47:54;;;;;;;7.30;4.50;;;;;;;23.26;38.21;94660.59;6164389;28;103126;-54
2022/04/24 07:50:55;;;;;;;5.23;4.73;;;;;;;23.29;38.22;94659.19;6164952;28;103417;-54
2022/04/24 07:53:57;;;;;;;6.83;4.30;;;;;;;23.29;38.79;94662.66;6162284;28;103009;-54
2022/04/24 07:56:59;;;;;;;6.63;4.87;;;;;;;23.27;38.34;94651.47;6158166;28;104097;-54
2022/04/24 08:00:00;;;;;;;6.00;5.10;;;;;;;23.34;38.69;94650.22;6176543;28;103517;-54
2022/04/24 08:03:04;;;;;;;6.17;4.30;;;;;;;23.36;39.18;94648.03;6180390;28;104256;-54
2022/04/24 08:06:06;;;;;;;4.97;4.50;;;;;;;23.37;38.79;94644.25;6161946;28;104055;-54
2022/04/24 08:09:08;;;;;;;5.77;4.87;;;;;;;23.40;38.74;94648.94;6172239;28;104326;-54
2022/04/24 08:12:10;;;;;;;6.17;4.57;;;;;;;23.43;39.21;94637.59;6180621;28;104167;-53
2022/04/24 08:15:12;;;;;;;5.87;5.20;;;;;;;23.46;39.11;94627.06;6156894;28;103772;-53
2022/04/24 08:18:14;;;;;;;5.67;5.10;;;;;;;23.47;39.41;94622.50;6160763;28;103989;-54
2022/04/24 08:21:16;;;;;;;6.00;5.40;;;;;;;23.45;39.49;94606.78;6145030;28;103399;-53
2022/04/24 08:24:18;;;;;;;5.63;5.13;;;;;;;23.53;38.99;94619.31;6162948;28;103982;-54
2022/04/24 08:27:23;;;;;;;6.47;4.80;;;;;;;23.54;39.04;94612.09;6156103;28;104012;-55
2022/04/24 08:30:25;;;;;;;7.50;4.77;;;;;;;23.54;39.16;94610.19;6143703;28;103566;-55
2022/04/24 08:33:27;;;;;;;6.57;4.13;;;;;;;23.60;39.38;94600.88;6150820;28;103779;-55
2022/04/24 08:36:28;;;;;;;5.17;4.07;;;;;;;23.64;39.89;94606.34;6149080;28;104291;-55
2022/04/24 08:39:32;;;;;;;7.97;4.60;;;;;;;23.64;40.12;94606.34;6156411;28;104659;-55
2022/04/24 08:42:34;;;;;;;7.50;3.83;;;;;;;23.66;39.79;94598.78;6180257;28;103932;-55
2022/04/24 08:45:41;;;;;;;6.27;4.43;;;;;;;23.65;39.89;94597.22;6155374;28;104219;-54
2022/04/24 08:48:45;;;;;;;6.90;5.13;;;;;;;23.66;40.05;94601.44;6167223;28;103110;-54
2022/04/24 08:51:47;;;;;;;6.10;4.83;;;;;;;23.66;40.38;94598.78;6160993;28;103301;-54
2022/04/24 08:54:50;;;;;;;4.77;4.37;;;;;;;23.71;39.58;94589.81;6148537;28;103574;-54
2022/04/24 08:57:52;;;;;;;4.73;4.27;;;;;;;23.70;39.72;94594.38;6152503;28;103069;-54
2022/04/24 09:00:55;;;;;;;6.33;4.40;;;;;;;23.72;39.63;94586.03;6170267;28;103277;-54
2022/04/24 09:03:57;;;;;;;4.47;4.03;;;;;;;23.70;39.59;94583.69;6165634;28;103053;-54
2022/04/24 09:07:01;;;;;;;5.10;4.60;;;;;;;23.70;39.89;94578.34;6147693;28;103435;-54
2022/04/24 09:10:07;;;;;;;4.70;4.30;;;;;;;23.74;40.39;94589.16;6164333;28;103577;-54
2022/04/24 09:13:09;;;;;;;6.50;5.90;;;;;;;23.77;41.06;94578.59;6156257;28;103075;-53
2022/04/24 09:16:10;;;;;;;6.27;5.73;;;;;;;23.82;41.49;94578.38;6159414;28;104097;-54
2022/04/24 09:19:25;;;;;;;7.50;5.50;;;;;;;23.85;41.69;94572.38;6164879;28;104011;-55
2022/04/24 09:22:27;;;;;;;8.27;7.40;;;;;;;23.87;42.38;94567.50;6158827;28;104224;-54
2022/04/24 09:25:39;;;;;;;7.27;6.37;;;;;;;23.88;42.42;94566.41;6156149;28;103370;-54
2022/04/24 09:28:41;;;;;;;11.20;5.80;;;;;;;23.90;42.26;94564.16;6169167;28;104010;-54
2022/04/24 09:31:45;;;;;;;6.43;5.83;;;;;;;23.88;42.00;94554.91;6186680;28;104604;-55
2022/04/24 09:34:47;;;;;;;6.90;6.30;;;;;;;23.84;42.64;94551.31;6167825;28;104182;-54
2022/04/24 09:37:49;;;;;;;7.90;4.97;;;;;;;23.84;41.00;94551.31;6164714;28;103569;-54
2022/04/24 09:40:51;;;;;;;5.70;5.20;;;;;;;23.85;41.97;94542.97;6149502;28;103835;-55
2022/04/24 09:43:53;;;;;;;6.60;5.70;;;;;;;23.89;42.23;94541.22;6160529;28;103420;-54
2022/04/24 09:46:59;;;;;;;5.20;4.70;;;;;;;23.83;40.46;94539.06;6156269;28;102826;-55
2022/04/24 09:50:02;;;;;;;8.50;5.50;;;;;;;23.82;41.06;94532.94;6175403;28;103184;-54
2022/04/24 09:53:05;;;;;;;4.97;3.60;;;;;;;23.67;39.12;94524.75;6174017;28;104241;-54
2022/04/24 09:56:08;;;;;;;4.73;3.40;;;;;;;23.56;39.13;94527.84;6170107;28;104304;-52
2022/04/24 09:59:10;;;;;;;4.70;3.50;;;;;;;23.63;39.47;94519.28;6160279;28;104516;-52
2022/04/24 10:02:14;;;;;;;3.50;3.17;;;;;;;23.68;39.28;94519.09;6151253;28;103271;-52
2022/04/24 10:05:17;;;;;;;4.00;3.53;;;;;;;23.68;39.24;94511.06;6178470;28;103230;-52
2022/04/24 10:08:19;;;;;;;4.57;2.87;;;;;;;23.66;39.07;94507.94;6159108;28;103119;-51
2022/04/24 10:11:24;;;;;;;5.33;3.57;;;;;;;23.66;39.42;94494.59;6157523;28;104434;-51
2022/04/24 10:14:27;;;;;;;5.33;3.50;;;;;;;23.64;39.10;94493.38;6147669;28;103850;-51
2022/04/24 10:17:47;;;;;;;3.67;3.37;;;;;;;23.63;39.09;94484.56;6155254;28;104185;-51
2022/04/24 10:21:21;;;;;;;5.17;2.80;;;;;;;23.64;38.86;94478.13;6158341;28;103284;-51
2022/04/24 10:24:24;;;;;;;4.00;3.10;;;;;;;23.64;39.04;94474.66;6156431;28;103295;-54
2022/04/24 10:27:55;;;;;;;3.23;2.93;;;;;;;23.63;38.96;94473.88;6162745;28;103427;-52
2022/04/24 10:30:59;;;;;;;7.60;3.00;;;;;;;23.59;38.70;94467.66;6160623;28;105032;-51
2022/04/24 10:34:06;;;;;;;3.40;2.83;;;;;;;23.57;38.54;94467.19;6172287;28;103045;-53
2022/04/24 10:37:09;;;;;;;3.60;3.30;;;;;;;23.55;38.93;94466.75;6147023;28;103977;-52
2022/04/24 10:40:13;;;;;;;3.40;3.10;;;;;;;23.53;38.76;94466.31;6165643;28;103957;-52
2022/04/24 10:43:20;;;;;;;3.87;3.40;;;;;;;23.51;38.69;94463.16;6158241;28;103240;-51
2022/04/24 10:46:29;;;;;;;3.60;3.30;;;;;;;23.49;38.19;94460.03;6160579;28;103951;-53
2022/04/24 10:49:35;;;;;;;3.23;2.93;;;;;;;23.48;38.54;94455.81;6149296;28;103352;-52
2022/04/24 10:52:44;;;;;;;9.40;8.47;;;;;;;23.45;38.82;94446.56;6166081;28;103402;-57
2022/04/24 10:55:46;;;;;;;10.57;9.47;;;;;;;23.44;41.17;94441.56;6173832;28;104470;-56
2022/04/24 10:58:50;;;;;;;12.60;11.40;;;;;;;23.41;41.22;94447.56;6152966;28;103158;-56
2022/04/24 11:01:53;;;;;;;11.97;10.93;;;;;;;23.43;41.79;94440.00;6164726;28;103645;-53
2022/04/24 11:05:01;;;;;;;11.20;10.30;;;;;;;23.46;41.33;94442.00;6158176;28;104081;-52
2022/04/24 11:08:08;;;;;;;9.90;9.00;;;;;;;23.47;41.29;94443.56;6156700;28;103400;-52
2022/04/24 11:11:13;;;;;;;10.60;9.40;;;;;;;23.47;41.26;94440.91;6150410;28;102935;-52
2022/04/24 11:14:20;;;;;;;13.07;8.50;;;;;;;23.49;41.61;94444.78;6151717;28;103362;-52
2022/04/24 11:17:22;;;;;;;9.60;8.00;;;;;;;23.47;41.59;94438.22;6172751;28;103293;-52
2022/04/24 11:20:29;;;;;;;9.53;8.53;;;;;;;23.44;41.57;94426.31;6175333;28;103190;-52
2022/04/24 11:23:34;;;;;;;9.07;8.27;;;;;;;23.44;41.94;94420.19;6172728;28;104098;-53
2022/04/24 11:26:36;;;;;;;9.70;8.77;;;;;;;23.42;42.38;94417.06;6164539;28;103651;-51
2022/04/24 11:29:39;;;;;;;9.33;8.40;;;;;;;23.43;41.70;94415.97;6160335;28;103517;-52
2022/04/24 11:32:40;;;;;;;9.30;8.40;;;;;;;23.40;42.15;94403.28;6153017;28;103223;-53
2022/04/24 11:35:42;;;;;;;8.83;8.00;;;;;;;23.40;42.33;94403.28;6157358;28;103458;-52
2022/04/24 11:38:51;;;;;;;9.33;8.27;;;;;;;23.39;42.03;94396.38;6160436;28;104222;-52
2022/04/24 11:41:58;;;;;;;9.10;8.33;;;;;;;23.37;41.98;94398.59;6163407;28;103714;-51
2022/04/24 11:51:52;;;;;;;8.80;8.00;;;;;;;23.35;42.25;94385.56;6155238;28;102976;-52
2022/04/24 11:54:55;;;;;;;9.40;8.43;;;;;;;23.34;42.53;94399.22;6149742;28;104806;-52
2022/04/24 11:58:01;;;;;;;8.77;7.97;;;;;;;23.37;42.37;94394.03;6153960;28;104154;-52
2022/04/24 12:01:05;;;;;;;9.27;8.37;;;;;;;23.34;42.61;94391.22;6159713;28;103065;-52
2022/04/24 12:04:07;;;;;;;9.70;8.80;;;;;;;23.35;42.68;94380.22;6157497;28;103003;-53
2022/04/24 12:07:09;;;;;;;9.77;8.90;;;;;;;23.33;42.21;94387.78;6147088;28;104098;-52
2022/04/24 12:10:11;;;;;;;8.90;8.10;;;;;;;23.34;42.97;94385.88;6154685;28;104914;-52
2022/04/24 12:13:15;;;;;;;9.80;8.90;;;;;;;23.35;42.36;94384.78;6170108;28;103219;-52
2022/04/24 12:16:22;;;;;;;9.10;8.30;;;;;;;23.32;42.87;94372.88;6162323;28;105077;-52
2022/04/24 12:19:24;;;;;;;8.10;7.40;;;;;;;23.33;42.46;94363.75;6161210;28;104227;-52
2022/04/24 12:22:31;;;;;;;8.70;7.90;;;;;;;23.30;42.75;94359.84;6180010;28;103120;-52
2022/04/24 12:25:33;;;;;;;8.80;8.10;;;;;;;23.33;43.04;94363.75;6169755;28;104167;-52
2022/04/24 12:29:04;;;;;;;8.80;8.10;;;;;;;23.32;43.17;94359.53;6168169;28;104897;-52
2022/04/24 12:32:06;;;;;;;9.43;8.63;;;;;;;23.32;42.90;94358.75;6157191;28;103087;-52
2022/04/24 12:35:29;;;;;;;8.40;7.70;;;;;;;23.32;43.16;94358.75;6163478;28;103107;-52
2022/04/24 12:38:31;;;;;;;8.40;7.70;;;;;;;23.32;43.44;94364.09;6162888;28;104258;-52
2022/04/24 12:41:37;;;;;;;8.50;7.73;;;;;;;23.35;43.46;94363.41;6156960;28;104779;-55
2022/04/24 12:44:39;;;;;;;7.97;7.27;;;;;;;23.33;43.73;94344.28;6172023;28;104007;-54
2022/04/24 12:47:42;;;;;;;9.33;8.43;;;;;;;23.29;42.83;94347.63;6166124;28;103334;-54
2022/04/24 12:50:44;;;;;;;11.33;10.20;;;;;;;23.26;42.37;94344.81;6161013;28;103034;-54
2022/04/24 12:53:45;;;;;;;11.87;10.87;;;;;;;23.23;42.17;94343.56;6152838;28;104388;-55
2022/04/24 12:56:47;;;;;;;13.33;12.13;;;;;;;23.20;42.09;94336.22;6167286;28;104222;-54
2022/04/24 12:59:49;;;;;;;14.20;12.80;;;;;;;23.23;41.69;94324.88;6154975;28;104195;-55
2022/04/24 13:02:51;;;;;;;14.33;12.37;;;;;;;23.23;41.65;94332.13;6155181;28;103907;-55
2022/04/24 13:05:53;;;;;;;15.50;14.00;;;;;;;23.24;42.14;94323.78;6155036;28;104647;-54
2022/04/24 13:08:58;;;;;;;13.50;12.40;;;;;;;23.28;41.89;94321.22;6169053;28;104688;-53
2022/04/24 13:12:01;;;;;;;12.47;11.40;;;;;;;23.28;42.18;94316.66;6153173;28;103248;-54
2022/04/24 13:15:03;;;;;;;15.20;14.00;;;;;;;23.29;42.09;94312.91;6142819;28;104374;-53
2022/04/24 13:18:08;;;;;;;17.70;15.90;;;;;;;23.42;42.27;94312.94;6154190;28;103210;-55
2022/04/24 13:21:10;;;;;;;16.33;14.80;;;;;;;23.43;42.30;94312.59;6151360;28;103697;-54
2022/04/24 13:24:12;;;;;;;15.17;13.77;;;;;;;23.47;42.31;94312.72;6160422;28;103196;-54
2022/04/24 13:27:14;;;;;;;16.00;14.43;;;;;;;23.47;42.75;94313.50;6150679;28;104327;-54
2022/04/24 13:30:16;;;;;;;17.50;15.47;;;;;;;23.47;42.28;94304.69;6157084;28;103131;-56
2022/04/24 13:33:18;;;;;;;14.50;13.20;;;;;;;23.48;41.75;94308.94;6158092;28;104149;-54
2022/04/24 13:36:25;;;;;;;15.10;13.80;;;;;;;23.46;42.16;94317.28;6169054;28;104257;-54
2022/04/24 13:39:27;;;;;;;15.27;13.83;;;;;;;23.52;42.37;94312.50;6160654;28;104046;-59
2022/04/24 13:42:29;;;;;;;16.97;15.53;;;;;;;23.50;43.71;94307.47;6155382;28;104193;-55
2022/04/24 13:45:33;;;;;;;25.40;21.70;;;;;;;23.53;44.64;94304.16;6159423;28;103969;-55
2022/04/24 13:48:55;;;;;;;24.37;22.27;;;;;;;23.49;45.28;94292.56;6156837;28;102750;-56
2022/04/24 13:51:57;;;;;;;23.47;21.27;;;;;;;23.53;44.82;94295.38;6148602;28;103090;-54
2022/04/24 13:54:59;;;;;;;19.17;17.50;;;;;;;23.58;43.67;94298.59;6158775;28;104572;-54
2022/04/24 13:58:05;;;;;;;16.03;14.73;;;;;;;23.56;43.42;94292.03;6162322;28;103354;-54
2022/04/24 14:01:07;;;;;;;16.80;15.00;;;;;;;23.59;43.38;94296.72;6146826;28;103590;-55
2022/04/24 14:04:09;;;;;;;16.20;14.70;;;;;;;23.60;43.47;94300.94;6162723;28;103987;-55
2022/04/24 14:07:12;;;;;;;15.83;14.30;;;;;;;23.65;43.65;94305.28;6157901;28;103382;-54
2022/04/24 14:10:14;;;;;;;15.87;14.57;;;;;;;23.60;43.90;94295.59;6157855;28;104126;-54
2022/04/24 14:13:15;;;;;;;22.30;20.10;;;;;;;23.61;47.35;94294.47;6148077;28;104480;-54
2022/04/24 14:16:18;;;;;;;18.93;17.43;;;;;;;23.64;46.35;94288.47;6162430;28;104268;-54